createdAt,value
2016-11-25T00:00:03.639Z,0
2016-11-25T00:01:03.527Z,0
2016-11-25T00:02:04.511Z,0
2016-11-25T00:03:03.344Z,0
2016-11-25T00:04:03.738Z,0
2016-11-25T00:05:04.316Z,0
2016-11-25T00:06:03.697Z,0
2016-11-25T00:07:03.624Z,0
2016-11-25T00:08:04.316Z,0
2016-11-25T00:09:04.316Z,0
2016-11-25T00:10:03.216Z,0
2016-11-25T00:11:03.229Z,0
2016-11-25T00:12:03.258Z,0
2016-11-25T00:13:03.732Z,0
2016-11-25T00:14:03.595Z,0
2016-11-25T00:15:03.986Z,0
2016-11-25T00:16:03.945Z,0
2016-11-25T00:17:03.737Z,0
2016-11-25T00:18:04.607Z,0
2016-11-25T00:19:04.068Z,0
2016-11-25T00:20:03.921Z,0
2016-11-25T00:21:03.344Z,0
2016-11-25T00:22:03.611Z,0
2016-11-25T00:23:04.034Z,0
2016-11-25T00:24:04.904Z,0
2016-11-25T00:25:04.248Z,0
2016-11-25T00:26:03.479Z,0
2016-11-25T00:27:03.594Z,0
2016-11-25T00:28:04.249Z,0
2016-11-25T00:29:04.546Z,0
2016-11-25T00:30:04.032Z,0
2016-11-25T00:31:03.853Z,0
2016-11-25T00:32:03.442Z,0
2016-11-25T00:33:03.639Z,0
2016-11-25T00:34:04.718Z,0
2016-11-25T00:35:04.312Z,0
2016-11-25T00:36:03.566Z,0
2016-11-25T00:37:04.446Z,0
2016-11-25T00:38:03.938Z,0
2016-11-25T00:39:04.871Z,0
2016-11-25T00:40:04.520Z,0
2016-11-25T00:41:03.991Z,0
2016-11-25T00:42:04.187Z,0
2016-11-25T00:43:05.128Z,0
2016-11-25T00:44:04.060Z,0
2016-11-25T00:45:03.809Z,0
2016-11-25T00:46:04.288Z,0
2016-11-25T00:47:04.165Z,0
2016-11-25T00:48:03.847Z,0
2016-11-25T00:49:04.231Z,0
2016-11-25T00:50:04.400Z,0
2016-11-25T00:51:05.739Z,0
2016-11-25T00:52:04.230Z,0
2016-11-25T00:53:04.326Z,0
2016-11-25T00:54:05.583Z,0
2016-11-25T00:55:04.193Z,0
2016-11-25T00:56:04.526Z,0
2016-11-25T00:57:04.601Z,0
2016-11-25T00:58:04.131Z,0
2016-11-25T00:59:04.059Z,0
2016-11-25T01:00:04.991Z,0
2016-11-25T01:01:03.968Z,0
2016-11-25T01:02:04.295Z,0
2016-11-25T01:03:03.642Z,0
2016-11-25T01:04:04.277Z,0
2016-11-25T01:05:04.046Z,0
2016-11-25T01:06:04.627Z,0
2016-11-25T01:07:04.522Z,0
2016-11-25T01:08:04.589Z,0
2016-11-25T01:09:04.771Z,0
2016-11-25T01:10:05.060Z,0
2016-11-25T01:11:04.587Z,0
2016-11-25T01:12:04.292Z,0
2016-11-25T01:13:03.753Z,0
2016-11-25T01:14:04.343Z,0
2016-11-25T01:15:04.322Z,0
2016-11-25T01:16:04.501Z,0
2016-11-25T01:17:05.881Z,0
2016-11-25T01:18:04.748Z,0
2016-11-25T01:19:04.845Z,0
2016-11-25T01:20:04.454Z,0
2016-11-25T01:21:04.105Z,0
2016-11-25T01:22:06.031Z,0
2016-11-25T01:23:05.216Z,0
2016-11-25T01:24:04.090Z,0
2016-11-25T01:25:04.277Z,0
2016-11-25T01:26:04.549Z,0
2016-11-25T01:27:05.754Z,0
2016-11-25T01:28:04.010Z,0
2016-11-25T01:29:05.385Z,0
2016-11-25T01:30:05.503Z,0
2016-11-25T01:31:04.458Z,0
2016-11-25T01:32:04.486Z,0
2016-11-25T01:33:04.967Z,0
2016-11-25T01:34:04.680Z,0
2016-11-25T01:35:04.922Z,0
2016-11-25T01:36:04.896Z,0
2016-11-25T01:37:05.287Z,0
2016-11-25T01:38:03.952Z,0
2016-11-25T01:39:04.599Z,0
2016-11-25T01:40:05.964Z,0
2016-11-25T01:41:04.878Z,0
2016-11-25T01:42:04.299Z,0
2016-11-25T01:43:04.752Z,0
2016-11-25T01:44:05.306Z,0
2016-11-25T01:45:05.615Z,0
2016-11-25T01:46:04.782Z,0
2016-11-25T01:47:05.636Z,0
2016-11-25T01:48:05.057Z,0
2016-11-25T01:49:04.740Z,0
2016-11-25T01:50:05.140Z,0
2016-11-25T01:51:05.180Z,0
2016-11-25T01:52:05.372Z,0
2016-11-25T01:53:04.538Z,0
2016-11-25T01:54:05.154Z,0
2016-11-25T01:55:04.685Z,0
2016-11-25T01:56:04.837Z,0
2016-11-25T01:57:05.716Z,0
2016-11-25T01:58:04.838Z,0
2016-11-25T01:59:04.769Z,0
2016-11-25T02:00:05.775Z,0
2016-11-25T02:01:04.883Z,0
2016-11-25T02:02:04.775Z,0
2016-11-25T02:03:05.524Z,0
2016-11-25T02:04:05.021Z,0
2016-11-25T02:05:05.612Z,0
2016-11-25T02:06:04.490Z,0
2016-11-25T02:07:06.342Z,0
2016-11-25T02:08:04.565Z,0
2016-11-25T02:09:04.617Z,0
2016-11-25T02:10:05.471Z,0
2016-11-25T02:11:05.785Z,0
2016-11-25T02:12:05.071Z,0
2016-11-25T02:13:05.333Z,0
2016-11-25T02:14:06.179Z,0
2016-11-25T02:15:05.316Z,0
2016-11-25T02:16:04.847Z,0
2016-11-25T02:17:05.264Z,0
2016-11-25T02:18:05.237Z,0
2016-11-25T02:19:06.087Z,0
2016-11-25T02:20:04.997Z,0
2016-11-25T02:21:06.354Z,0
2016-11-25T02:22:04.851Z,0
2016-11-25T02:23:06.331Z,0
2016-11-25T02:24:05.688Z,0
2016-11-25T02:25:05.395Z,0
2016-11-25T02:26:05.170Z,0
2016-11-25T02:27:05.278Z,0
2016-11-25T02:28:05.861Z,0
2016-11-25T02:29:05.924Z,0
2016-11-25T02:30:05.330Z,0
2016-11-25T02:31:06.215Z,0
2016-11-25T02:32:05.518Z,0
2016-11-25T02:33:05.786Z,0
2016-11-25T02:34:06.643Z,0
2016-11-25T02:35:05.116Z,0
2016-11-25T02:36:05.997Z,0
2016-11-25T02:37:05.955Z,0
2016-11-25T02:38:05.768Z,0
2016-11-25T02:39:05.171Z,0
2016-11-25T02:40:05.543Z,0
2016-11-25T02:41:05.728Z,0
2016-11-25T02:42:06.102Z,0
2016-11-25T02:43:05.035Z,0
2016-11-25T02:44:05.381Z,0
2016-11-25T02:45:06.170Z,0
2016-11-25T02:46:06.212Z,0
2016-11-25T02:47:05.749Z,0
2016-11-25T02:48:05.107Z,0
2016-11-25T02:49:06.598Z,0
2016-11-25T02:50:06.815Z,0
2016-11-25T02:51:06.296Z,0
2016-11-25T02:52:05.645Z,0
2016-11-25T02:53:05.830Z,0
2016-11-25T02:54:05.668Z,0
2016-11-25T02:55:05.185Z,0
2016-11-25T02:56:06.025Z,0
2016-11-25T02:57:05.690Z,0
2016-11-25T02:58:05.611Z,0
2016-11-25T02:59:05.964Z,0
2016-11-25T03:00:06.069Z,0
2016-11-25T03:01:05.156Z,0
2016-11-25T03:02:05.043Z,0
2016-11-25T03:03:05.770Z,0
2016-11-25T03:04:05.903Z,0
2016-11-25T03:05:05.584Z,0
2016-11-25T03:06:06.061Z,0
2016-11-25T03:07:05.134Z,0
2016-11-25T03:08:06.377Z,0
2016-11-25T03:09:06.174Z,0
2016-11-25T03:10:06.293Z,0
2016-11-25T03:11:06.334Z,0
2016-11-25T03:12:06.018Z,0
2016-11-25T03:13:06.381Z,0
2016-11-25T03:14:06.055Z,0
2016-11-25T03:15:05.410Z,0
2016-11-25T03:16:06.390Z,0
2016-11-25T03:17:06.457Z,0
2016-11-25T03:18:07.016Z,0
2016-11-25T03:19:06.249Z,0
2016-11-25T03:20:05.847Z,0
2016-11-25T03:21:06.393Z,0
2016-11-25T03:22:06.533Z,0
2016-11-25T03:23:06.391Z,0
2016-11-25T03:24:06.778Z,0
2016-11-25T03:25:05.927Z,0
2016-11-25T03:26:06.845Z,0
2016-11-25T03:27:07.711Z,0
2016-11-25T03:28:06.195Z,0
2016-11-25T03:29:06.281Z,0
2016-11-25T03:30:05.898Z,0
2016-11-25T03:31:06.901Z,0
2016-11-25T03:32:06.677Z,0
2016-11-25T03:33:06.467Z,0
2016-11-25T03:34:06.295Z,0
2016-11-25T03:35:05.678Z,0
2016-11-25T03:36:06.626Z,0
2016-11-25T03:37:06.284Z,0
2016-11-25T03:38:07.213Z,0
2016-11-25T03:39:06.660Z,0
2016-11-25T03:40:07.604Z,0
2016-11-25T03:41:06.738Z,0
2016-11-25T03:42:06.286Z,0
2016-11-25T03:43:06.765Z,0
2016-11-25T03:44:06.691Z,0
2016-11-25T03:45:06.538Z,0
2016-11-25T03:46:06.455Z,0
2016-11-25T03:47:06.527Z,0
2016-11-25T03:48:06.169Z,0
2016-11-25T03:49:08.995Z,0
2016-11-25T03:50:06.483Z,0
2016-11-25T03:51:05.972Z,0
2016-11-25T03:52:06.150Z,0
2016-11-25T03:53:07.499Z,0
2016-11-25T03:54:06.233Z,0
2016-11-25T03:55:06.652Z,0
2016-11-25T03:56:07.178Z,0
2016-11-25T03:57:06.061Z,0
2016-11-25T03:58:06.718Z,0
2016-11-25T03:59:05.880Z,0
2016-11-25T04:00:07.106Z,0
2016-11-25T04:01:06.404Z,0
2016-11-25T04:02:06.343Z,0
2016-11-25T04:03:06.803Z,0
2016-11-25T04:04:06.802Z,0
2016-11-25T04:05:06.891Z,0
2016-11-25T04:06:06.551Z,0
2016-11-25T04:07:06.544Z,0
2016-11-25T04:08:07.002Z,0
2016-11-25T04:09:06.074Z,0
2016-11-25T04:10:07.205Z,0
2016-11-25T04:11:06.987Z,0
2016-11-25T04:12:07.180Z,0
2016-11-25T04:13:07.047Z,0
2016-11-25T04:14:05.871Z,0
2016-11-25T04:15:07.910Z,0
2016-11-25T04:16:07.367Z,0
2016-11-25T04:17:06.952Z,0
2016-11-25T04:18:06.791Z,0
2016-11-25T04:19:06.428Z,0
2016-11-25T04:20:07.864Z,0
2016-11-25T04:21:07.091Z,0
2016-11-25T04:22:06.470Z,0
2016-11-25T04:23:07.152Z,0
2016-11-25T04:24:06.908Z,0
2016-11-25T04:25:06.798Z,0
2016-11-25T04:26:06.943Z,0
2016-11-25T04:27:07.436Z,0
2016-11-25T04:28:07.114Z,0
2016-11-25T04:29:07.083Z,0
2016-11-25T04:30:07.083Z,0
2016-11-25T04:31:06.776Z,0
2016-11-25T04:32:06.865Z,0
2016-11-25T04:33:07.802Z,0
2016-11-25T04:34:07.772Z,0
2016-11-25T04:35:06.397Z,0
2016-11-25T04:36:07.096Z,0
2016-11-25T04:37:06.716Z,0
2016-11-25T04:38:07.458Z,0
2016-11-25T04:39:07.499Z,0
2016-11-25T04:40:06.196Z,0
2016-11-25T04:41:06.581Z,0
2016-11-25T04:42:06.769Z,0
2016-11-25T04:43:07.121Z,0
2016-11-25T04:44:07.310Z,0
2016-11-25T04:45:06.361Z,0
2016-11-25T04:46:07.191Z,0
2016-11-25T04:47:07.676Z,0
2016-11-25T04:48:06.934Z,0
2016-11-25T04:49:07.539Z,0
2016-11-25T04:50:07.132Z,0
2016-11-25T04:51:07.274Z,0
2016-11-25T04:52:06.195Z,0
2016-11-25T04:53:07.952Z,0
2016-11-25T04:54:07.564Z,0
2016-11-25T04:55:07.605Z,0
2016-11-25T04:56:06.759Z,0
2016-11-25T04:57:07.779Z,0
2016-11-25T04:58:07.753Z,0
2016-11-25T04:59:07.057Z,0
2016-11-25T05:00:06.917Z,0
2016-11-25T05:01:06.922Z,0
2016-11-25T05:02:08.376Z,0
2016-11-25T05:03:07.324Z,0
2016-11-25T05:04:08.580Z,0
2016-11-25T05:05:07.471Z,0
2016-11-25T05:06:07.217Z,0
2016-11-25T05:07:06.858Z,0
2016-11-25T05:08:07.718Z,0
2016-11-25T05:09:05.918Z,0
2016-11-25T05:10:06.979Z,0
2016-11-25T05:11:09.034Z,0
2016-11-25T05:12:08.439Z,0
2016-11-25T05:13:07.778Z,0
2016-11-25T05:14:08.129Z,0
2016-11-25T05:15:08.428Z,0
2016-11-25T05:16:07.525Z,0
2016-11-25T05:17:08.419Z,0
2016-11-25T05:18:07.307Z,0
2016-11-25T05:19:07.947Z,0
2016-11-25T05:20:08.759Z,0
2016-11-25T05:21:07.553Z,0
2016-11-25T05:22:07.876Z,0
2016-11-25T05:23:09.195Z,0
2016-11-25T05:24:08.104Z,0
2016-11-25T05:25:09.138Z,0
2016-11-25T05:26:07.831Z,0
2016-11-25T05:27:08.350Z,0
2016-11-25T05:28:07.559Z,0
2016-11-25T05:29:08.612Z,0
2016-11-25T05:30:08.834Z,0
2016-11-25T05:31:08.597Z,0
2016-11-25T05:32:08.634Z,0
2016-11-25T05:33:07.527Z,0
2016-11-25T05:34:08.552Z,0
2016-11-25T05:35:08.031Z,0
2016-11-25T05:36:06.581Z,0
2016-11-25T05:37:06.573Z,0
2016-11-25T05:38:07.503Z,0
2016-11-25T05:39:08.904Z,0
2016-11-25T05:40:08.495Z,0
2016-11-25T05:41:07.890Z,0
2016-11-25T05:42:08.693Z,0
2016-11-25T05:43:08.907Z,0
2016-11-25T05:44:08.888Z,0
2016-11-25T05:45:09.432Z,0
2016-11-25T05:46:08.907Z,0
2016-11-25T05:47:08.431Z,0
2016-11-25T05:48:08.969Z,0
2016-11-25T05:49:08.842Z,0
2016-11-25T05:50:08.909Z,0
2016-11-25T05:51:09.323Z,0
2016-11-25T05:52:07.968Z,0
2016-11-25T05:53:08.976Z,0
2016-11-25T05:54:08.363Z,0
2016-11-25T05:55:08.358Z,0
2016-11-25T05:56:07.582Z,0
2016-11-25T05:57:08.696Z,0
2016-11-25T05:58:09.316Z,0
2016-11-25T05:59:07.950Z,0
2016-11-25T06:00:08.790Z,0
2016-11-25T06:01:08.385Z,0
2016-11-25T06:02:07.715Z,0
2016-11-25T06:03:08.666Z,0
2016-11-25T06:04:08.684Z,0
2016-11-25T06:05:09.133Z,0
2016-11-25T06:06:07.873Z,0
2016-11-25T06:07:10.547Z,0
2016-11-25T06:08:08.639Z,0
2016-11-25T06:09:08.343Z,0
2016-11-25T06:10:08.833Z,0
2016-11-25T06:11:08.385Z,0
2016-11-25T06:12:08.528Z,0
2016-11-25T06:13:07.746Z,0
2016-11-25T06:14:09.281Z,0
2016-11-25T06:15:10.272Z,0
2016-11-25T06:16:09.679Z,0
2016-11-25T06:17:09.817Z,0
2016-11-25T06:18:09.631Z,0
2016-11-25T06:19:09.218Z,0
2016-11-25T06:20:11.194Z,0
2016-11-25T06:21:10.150Z,0
2016-11-25T06:25:09.179Z,0
2016-11-25T06:26:10.145Z,4
2016-11-25T06:27:08.577Z,4
2016-11-25T06:28:08.888Z,4
2016-11-25T06:29:09.546Z,8
2016-11-25T06:30:08.845Z,8
2016-11-25T06:31:10.544Z,8
2016-11-25T06:32:09.022Z,12
2016-11-25T06:33:08.883Z,12
2016-11-25T06:34:10.539Z,12
2016-11-25T06:35:09.946Z,16
2016-11-25T06:36:10.322Z,20
2016-11-25T06:37:07.874Z,24
2016-11-25T06:38:08.080Z,24
2016-11-25T06:39:08.652Z,32
2016-11-25T06:40:07.592Z,36
2016-11-25T06:41:08.021Z,40
2016-11-25T06:42:08.123Z,48
2016-11-25T06:43:08.341Z,56
2016-11-25T06:44:09.220Z,64
2016-11-25T06:45:08.411Z,76
2016-11-25T06:46:08.411Z,84
2016-11-25T06:47:09.967Z,100
2016-11-25T06:48:09.586Z,112
2016-11-25T06:49:08.412Z,128
2016-11-25T06:50:09.295Z,148
2016-11-25T06:51:07.990Z,164
2016-11-25T06:52:09.029Z,184
2016-11-25T06:53:09.136Z,208
2016-11-25T06:54:09.121Z,232
2016-11-25T06:55:09.324Z,252
2016-11-25T06:56:08.447Z,276
2016-11-25T06:57:08.077Z,300
2016-11-25T06:58:08.706Z,328
2016-11-25T06:59:09.228Z,356
2016-11-25T07:00:08.463Z,384
2016-11-25T07:01:08.698Z,412
2016-11-25T07:02:09.397Z,444
2016-11-25T07:03:08.757Z,480
2016-11-25T07:04:07.257Z,512
2016-11-25T07:05:07.603Z,548
2016-11-25T07:06:07.306Z,584
2016-11-25T07:07:07.538Z,624
2016-11-25T07:08:07.625Z,668
2016-11-25T07:09:07.355Z,712
2016-11-25T07:10:07.339Z,752
2016-11-25T07:11:07.312Z,804
2016-11-25T07:12:07.331Z,848
2016-11-25T07:13:07.704Z,900
2016-11-25T07:14:07.984Z,956
2016-11-25T07:15:07.684Z,1004
2016-11-25T07:16:07.691Z,1052
2016-11-25T07:17:07.704Z,1104
2016-11-25T07:18:07.696Z,1156
2016-11-25T07:19:07.464Z,1208
2016-11-25T07:20:07.824Z,1260
2016-11-25T07:21:07.750Z,1308
2016-11-25T07:22:09.451Z,1360
2016-11-25T07:23:09.433Z,1412
2016-11-25T07:24:09.979Z,1484
2016-11-25T07:25:09.425Z,1524
2016-11-25T07:26:09.408Z,1560
2016-11-25T07:27:08.585Z,1596
2016-11-25T07:28:07.873Z,1660
2016-11-25T07:29:07.609Z,1732
2016-11-25T07:30:07.563Z,1776
2016-11-25T07:31:07.935Z,1852
2016-11-25T07:32:07.626Z,1900
2016-11-25T07:33:07.938Z,1976
2016-11-25T07:34:07.939Z,2028
2016-11-25T07:35:07.615Z,2076
2016-11-25T07:36:07.849Z,2112
2016-11-25T07:37:07.985Z,2108
2016-11-25T07:38:07.626Z,2152
2016-11-25T07:39:07.708Z,2256
2016-11-25T07:40:08.066Z,2308
2016-11-25T07:41:09.622Z,2372
2016-11-25T07:42:09.820Z,2360
2016-11-25T07:43:09.249Z,2404
2016-11-25T07:44:08.634Z,2468
2016-11-25T07:45:09.317Z,2496
2016-11-25T07:46:08.964Z,2516
2016-11-25T07:47:09.025Z,2572
2016-11-25T07:48:09.742Z,2568
2016-11-25T07:49:09.055Z,2568
2016-11-25T07:50:09.863Z,2608
2016-11-25T07:51:09.466Z,2664
2016-11-25T07:52:09.290Z,2700
2016-11-25T07:53:08.875Z,2744
2016-11-25T07:54:10.023Z,2812
2016-11-25T07:55:09.924Z,2788
2016-11-25T07:56:09.068Z,2784
2016-11-25T07:57:09.154Z,2888
2016-11-25T07:58:09.443Z,2928
2016-11-25T07:59:09.656Z,2920
2016-11-25T08:00:09.195Z,2972
2016-11-25T08:01:09.155Z,3088
2016-11-25T08:02:10.016Z,3260
2016-11-25T08:03:09.105Z,3288
2016-11-25T08:04:09.431Z,3308
2016-11-25T08:05:09.381Z,3328
2016-11-25T08:06:10.156Z,3248
2016-11-25T08:07:09.135Z,3268
2016-11-25T08:08:09.094Z,3416
2016-11-25T08:09:09.127Z,3528
2016-11-25T08:10:09.754Z,3664
2016-11-25T08:11:09.916Z,3620
2016-11-25T08:12:09.504Z,3560
2016-11-25T08:13:09.664Z,3756
2016-11-25T08:14:09.046Z,3816
2016-11-25T08:15:09.348Z,3724
2016-11-25T08:16:09.027Z,3716
2016-11-25T08:17:09.511Z,3768
2016-11-25T08:18:09.833Z,3884
2016-11-25T08:19:10.153Z,4020
2016-11-25T08:20:09.519Z,4024
2016-11-25T08:21:10.819Z,4028
2016-11-25T08:22:09.796Z,4312
2016-11-25T08:23:09.946Z,4784
2016-11-25T08:24:09.162Z,4880
2016-11-25T08:25:09.720Z,4932
2016-11-25T08:26:09.706Z,5012
2016-11-25T08:27:10.309Z,5096
2016-11-25T08:28:10.023Z,5196
2016-11-25T08:29:09.944Z,5512
2016-11-25T08:30:09.718Z,5636
2016-11-25T08:31:10.494Z,5596
2016-11-25T08:32:09.909Z,5668
2016-11-25T08:33:09.629Z,5696
2016-11-25T08:34:10.298Z,5640
2016-11-25T08:35:09.449Z,5636
2016-11-25T08:36:10.067Z,5776
2016-11-25T08:37:09.416Z,5788
2016-11-25T08:38:09.674Z,5812
2016-11-25T08:39:09.925Z,5736
2016-11-25T08:40:10.188Z,5684
2016-11-25T08:41:09.563Z,5668
2016-11-25T08:42:10.586Z,5644
2016-11-25T08:43:09.576Z,5632
2016-11-25T08:44:10.115Z,5616
2016-11-25T08:45:09.366Z,5644
2016-11-25T08:46:10.486Z,5668
2016-11-25T08:47:09.893Z,5668
2016-11-25T08:48:09.863Z,5832
2016-11-25T08:49:10.033Z,6012
2016-11-25T08:50:10.490Z,6012
2016-11-25T08:51:09.335Z,5928
2016-11-25T08:52:10.996Z,5976
2016-11-25T08:53:10.210Z,6032
2016-11-25T08:54:09.902Z,6016
2016-11-25T08:55:10.340Z,5896
2016-11-25T08:56:09.798Z,5760
2016-11-25T08:57:10.512Z,5664
2016-11-25T08:58:10.680Z,5564
2016-11-25T08:59:09.998Z,5512
2016-11-25T09:00:10.338Z,5484
2016-11-25T09:01:10.185Z,5476
2016-11-25T09:02:10.395Z,5424
2016-11-25T09:03:10.059Z,5432
2016-11-25T09:04:10.606Z,5416
2016-11-25T09:05:10.437Z,5412
2016-11-25T09:06:10.317Z,5436
2016-11-25T09:07:10.161Z,5448
2016-11-25T09:08:11.037Z,5444
2016-11-25T09:09:10.600Z,5416
2016-11-25T09:10:12.180Z,5396
2016-11-25T09:11:10.147Z,5380
2016-11-25T09:12:10.316Z,5356
2016-11-25T09:13:10.838Z,5344
2016-11-25T09:14:10.734Z,5332
2016-11-25T09:15:10.045Z,5320
2016-11-25T09:16:11.091Z,5328
2016-11-25T09:17:09.943Z,5332
2016-11-25T09:18:09.793Z,5368
2016-11-25T09:19:10.151Z,5364
2016-11-25T09:20:10.619Z,5404
2016-11-25T09:21:11.595Z,5420
2016-11-25T09:22:12.156Z,5440
2016-11-25T09:23:10.335Z,5420
2016-11-25T09:24:10.797Z,5392
2016-11-25T09:25:09.995Z,5396
2016-11-25T09:26:10.660Z,5388
2016-11-25T09:27:10.618Z,5400
2016-11-25T09:28:11.352Z,5404
2016-11-25T09:29:11.644Z,5404
2016-11-25T09:30:11.059Z,5420
2016-11-25T09:31:10.860Z,5424
2016-11-25T09:32:11.244Z,5420
2016-11-25T09:33:10.583Z,5464
2016-11-25T09:34:10.020Z,5492
2016-11-25T09:35:11.590Z,5504
2016-11-25T09:36:11.162Z,5476
2016-11-25T09:37:11.083Z,5460
2016-11-25T09:38:10.975Z,5488
2016-11-25T09:39:10.651Z,5500
2016-11-25T09:40:11.572Z,5528
2016-11-25T09:41:10.438Z,5528
2016-11-25T09:42:10.077Z,5508
2016-11-25T09:43:10.101Z,5492
2016-11-25T09:44:10.136Z,5500
2016-11-25T09:45:11.669Z,5500
2016-11-25T09:46:10.499Z,5448
2016-11-25T09:47:11.495Z,5428
2016-11-25T09:48:11.699Z,5424
2016-11-25T09:49:10.236Z,5416
2016-11-25T09:50:10.799Z,5388
2016-11-25T09:51:10.705Z,5396
2016-11-25T09:52:10.996Z,5416
2016-11-25T09:53:10.756Z,5436
2016-11-25T09:54:10.943Z,5456
2016-11-25T09:55:10.804Z,5452
2016-11-25T09:56:11.116Z,5456
2016-11-25T09:57:11.397Z,5436
2016-11-25T09:58:11.694Z,5436
2016-11-25T09:59:10.718Z,5440
2016-11-25T10:00:11.060Z,5444
2016-11-25T10:01:11.014Z,5428
2016-11-25T10:02:10.732Z,5388
2016-11-25T10:03:12.422Z,5356
2016-11-25T10:04:10.561Z,5368
2016-11-25T10:05:10.673Z,5360
2016-11-25T10:06:11.290Z,5336
2016-11-25T10:07:11.395Z,5304
2016-11-25T10:08:11.932Z,5304
2016-11-25T10:09:10.990Z,5308
2016-11-25T10:10:10.816Z,5312
2016-11-25T10:11:11.183Z,5284
2016-11-25T10:12:11.009Z,5252
2016-11-25T10:13:10.889Z,5256
2016-11-25T10:14:12.793Z,5232
2016-11-25T10:15:12.211Z,5204
2016-11-25T10:16:10.585Z,5200
2016-11-25T10:17:11.140Z,5196
2016-11-25T10:18:11.256Z,5164
2016-11-25T10:19:11.753Z,5172
2016-11-25T10:20:11.434Z,5176
2016-11-25T10:21:11.756Z,5164
2016-11-25T10:22:11.833Z,5148
2016-11-25T10:23:11.435Z,5128
2016-11-25T10:24:11.914Z,5140
2016-11-25T10:25:11.403Z,5144
2016-11-25T10:26:11.847Z,5128
2016-11-25T10:27:12.547Z,5120
2016-11-25T10:28:12.199Z,5096
2016-11-25T10:29:11.988Z,5056
2016-11-25T10:30:12.146Z,4988
2016-11-25T10:31:12.409Z,4876
2016-11-25T10:32:11.372Z,4772
2016-11-25T10:33:12.193Z,4768
2016-11-25T10:34:11.692Z,4904
2016-11-25T10:35:12.153Z,5032
2016-11-25T10:36:11.734Z,5100
2016-11-25T10:37:11.585Z,5108
2016-11-25T10:38:11.681Z,5120
2016-11-25T10:39:12.448Z,5156
2016-11-25T10:40:11.666Z,5164
2016-11-25T10:41:11.309Z,5152
2016-11-25T10:42:11.458Z,5160
2016-11-25T10:43:12.070Z,5184
2016-11-25T10:44:11.454Z,5204
2016-11-25T10:45:11.553Z,5216
2016-11-25T10:46:11.836Z,5224
2016-11-25T10:47:11.791Z,5224
2016-11-25T10:48:12.478Z,5232
2016-11-25T10:49:11.804Z,5228
2016-11-25T10:50:11.819Z,5224
2016-11-25T10:51:12.376Z,5228
2016-11-25T10:52:11.925Z,5244
2016-11-25T10:53:12.576Z,5252
2016-11-25T10:54:12.919Z,5248
2016-11-25T10:55:11.849Z,5256
2016-11-25T10:56:12.303Z,5248
2016-11-25T10:57:11.654Z,5244
2016-11-25T10:58:11.913Z,5268
2016-11-25T10:59:11.638Z,5280
2016-11-25T11:00:11.926Z,5264
2016-11-25T11:01:11.901Z,5228
2016-11-25T11:02:13.230Z,5232
2016-11-25T11:03:12.716Z,5268
2016-11-25T11:04:12.503Z,5276
2016-11-25T11:05:11.977Z,5284
2016-11-25T11:06:12.121Z,5292
2016-11-25T11:07:12.570Z,5280
2016-11-25T11:08:13.748Z,5280
2016-11-25T11:09:12.867Z,5256
2016-11-25T11:10:12.034Z,5236
2016-11-25T11:11:11.973Z,5236
2016-11-25T11:12:12.721Z,5232
2016-11-25T11:13:11.616Z,5216
2016-11-25T11:14:12.582Z,5212
2016-11-25T11:15:12.991Z,5204
2016-11-25T11:16:13.078Z,5192
2016-11-25T11:17:12.007Z,5184
2016-11-25T11:18:12.167Z,5152
2016-11-25T11:19:11.754Z,5168
2016-11-25T11:20:13.421Z,5160
2016-11-25T11:21:12.919Z,5156
2016-11-25T11:22:12.997Z,5156
2016-11-25T11:23:11.904Z,5144
2016-11-25T11:24:12.200Z,5152
2016-11-25T11:25:12.619Z,5152
2016-11-25T11:26:12.439Z,5156
2016-11-25T11:27:12.526Z,5156
2016-11-25T11:28:13.108Z,5128
2016-11-25T11:29:12.369Z,5132
2016-11-25T11:30:12.999Z,5132
2016-11-25T11:31:12.606Z,5132
2016-11-25T11:32:12.951Z,5136
2016-11-25T11:33:12.129Z,5152
2016-11-25T11:34:12.513Z,5172
2016-11-25T11:35:12.120Z,5188
2016-11-25T11:36:13.473Z,5176
2016-11-25T11:37:12.998Z,5160
2016-11-25T11:38:12.522Z,5152
2016-11-25T11:39:12.525Z,5168
2016-11-25T11:40:14.446Z,5144
2016-11-25T11:41:12.272Z,5152
2016-11-25T11:42:12.622Z,5152
2016-11-25T11:43:13.263Z,5148
2016-11-25T11:44:13.345Z,5132
2016-11-25T11:45:13.485Z,5128
2016-11-25T11:46:13.225Z,5132
2016-11-25T11:47:13.246Z,5116
2016-11-25T11:48:12.752Z,5108
2016-11-25T11:49:12.416Z,5092
2016-11-25T11:50:12.495Z,5084
2016-11-25T11:51:13.725Z,5076
2016-11-25T11:52:13.484Z,5084
2016-11-25T11:53:13.058Z,5064
2016-11-25T11:54:12.505Z,5064
2016-11-25T11:55:12.693Z,5052
2016-11-25T11:56:13.450Z,5032
2016-11-25T11:57:13.135Z,5016
2016-11-25T11:58:12.699Z,5016
2016-11-25T11:59:12.649Z,5004
2016-11-25T12:00:12.761Z,4996
2016-11-25T12:01:13.139Z,4992
2016-11-25T12:02:13.081Z,4980
2016-11-25T12:03:13.212Z,4972
2016-11-25T12:04:13.899Z,4964
2016-11-25T12:05:14.185Z,4952
2016-11-25T12:06:12.807Z,4944
2016-11-25T12:07:13.543Z,4924
2016-11-25T12:08:13.734Z,4900
2016-11-25T12:09:14.075Z,4888
2016-11-25T12:10:14.380Z,4856
2016-11-25T12:11:14.385Z,4844
2016-11-25T12:12:12.600Z,4828
2016-11-25T12:13:13.341Z,4804
2016-11-25T12:14:13.010Z,4788
2016-11-25T12:15:14.090Z,4772
2016-11-25T12:16:13.526Z,4760
2016-11-25T12:17:14.119Z,4748
2016-11-25T12:18:14.923Z,4720
2016-11-25T12:19:13.207Z,4692
2016-11-25T12:20:13.390Z,4656
2016-11-25T12:21:13.885Z,4648
2016-11-25T12:22:13.994Z,4624
2016-11-25T12:23:14.526Z,4604
2016-11-25T12:24:14.579Z,4592
2016-11-25T12:25:14.514Z,4560
2016-11-25T12:26:14.043Z,4548
2016-11-25T12:27:13.979Z,4560
2016-11-25T12:28:14.408Z,4536
2016-11-25T12:29:14.051Z,4504
2016-11-25T12:30:14.502Z,4504
2016-11-25T12:31:14.300Z,4516
2016-11-25T12:32:12.935Z,4512
2016-11-25T12:33:13.742Z,4532
2016-11-25T12:34:14.624Z,4520
2016-11-25T12:35:14.250Z,4508
2016-11-25T12:36:14.183Z,4388
2016-11-25T12:37:14.455Z,4420
2016-11-25T12:38:14.082Z,4484
2016-11-25T12:39:13.903Z,4492
2016-11-25T12:40:14.030Z,4488
2016-11-25T12:41:13.264Z,4496
2016-11-25T12:42:14.519Z,4496
2016-11-25T12:43:14.207Z,4460
2016-11-25T12:44:14.847Z,4440
2016-11-25T12:45:13.378Z,4412
2016-11-25T12:46:14.111Z,4376
2016-11-25T12:47:14.387Z,4364
2016-11-25T12:48:15.175Z,4336
2016-11-25T12:49:14.916Z,4320
2016-11-25T12:50:14.377Z,4304
2016-11-25T12:51:14.341Z,4284
2016-11-25T12:52:15.582Z,4260
2016-11-25T12:53:15.293Z,4276
2016-11-25T12:54:14.213Z,4272
2016-11-25T12:55:14.623Z,4260
2016-11-25T12:56:14.959Z,4280
2016-11-25T12:57:14.760Z,4280
2016-11-25T12:58:14.794Z,4268
2016-11-25T12:59:14.272Z,4280
2016-11-25T13:00:14.254Z,4260
2016-11-25T13:01:14.129Z,4260
2016-11-25T13:02:14.338Z,4252
2016-11-25T13:03:14.579Z,4232
2016-11-25T13:04:14.086Z,4212
2016-11-25T13:05:14.720Z,4232
2016-11-25T13:06:15.052Z,4240
2016-11-25T13:07:14.160Z,4220
2016-11-25T13:08:13.927Z,4176
2016-11-25T13:09:14.173Z,4140
2016-11-25T13:10:14.905Z,4112
2016-11-25T13:11:14.761Z,4124
2016-11-25T13:12:14.956Z,4140
2016-11-25T13:13:14.476Z,4116
2016-11-25T13:14:15.004Z,4080
2016-11-25T13:15:15.602Z,4060
2016-11-25T13:16:14.897Z,4048
2016-11-25T13:17:15.387Z,4048
2016-11-25T13:18:15.053Z,4036
2016-11-25T13:19:14.218Z,4040
2016-11-25T13:20:15.214Z,4060
2016-11-25T13:21:14.975Z,4052
2016-11-25T13:22:16.237Z,4064
2016-11-25T13:23:16.234Z,4060
2016-11-25T13:24:14.983Z,4052
2016-11-25T13:25:16.085Z,4032
2016-11-25T13:26:16.143Z,4008
2016-11-25T13:27:14.902Z,3992
2016-11-25T13:28:15.210Z,3964
2016-11-25T13:29:15.348Z,3920
2016-11-25T13:30:15.306Z,3860
2016-11-25T13:31:15.073Z,3864
2016-11-25T13:32:14.795Z,3856
2016-11-25T13:33:15.467Z,3888
2016-11-25T13:34:14.935Z,3868
2016-11-25T13:35:15.333Z,3864
2016-11-25T13:36:16.419Z,3848
2016-11-25T13:37:15.410Z,3828
2016-11-25T13:38:15.227Z,3824
2016-11-25T13:39:15.131Z,3812
2016-11-25T13:40:15.439Z,3792
2016-11-25T13:41:15.109Z,3780
2016-11-25T13:42:15.564Z,3768
2016-11-25T13:43:15.546Z,3760
2016-11-25T13:44:15.724Z,3760
2016-11-25T13:45:15.311Z,3760
2016-11-25T13:46:17.165Z,3760
2016-11-25T13:47:16.301Z,3752
2016-11-25T13:48:15.661Z,3732
2016-11-25T13:49:15.078Z,3700
2016-11-25T13:50:15.661Z,3664
2016-11-25T13:51:15.654Z,3600
2016-11-25T13:52:16.473Z,3500
2016-11-25T13:53:16.495Z,3420
2016-11-25T13:54:15.357Z,3368
2016-11-25T13:55:15.206Z,3316
2016-11-25T13:56:16.075Z,3276
2016-11-25T13:57:15.241Z,3240
2016-11-25T13:58:16.375Z,3208
2016-11-25T13:59:15.545Z,3180
2016-11-25T14:00:15.541Z,3148
2016-11-25T14:01:15.313Z,3120
2016-11-25T14:02:14.941Z,3088